PWSweather.com
Personal Weather Stations
Station Observations
WESTON01
WestonSuperMareGB BS22 8RT

WestonSuperMareGB BS22 8RT

Lat: 51.351508, Lon: -2.933373

Elevation: 15

Station Type: Fine Offset WH1080

http://www.westonweather.co.uk

Latest ConditionsUpdated 10:40:02 PM GMT Thursday, Dec 14, 2017
Currently Today's Max Today's Min Today's Average
Temperature 40.2°F4.6°C 43.1°F6.2°C 38.9°F3.8°C 40.4°F4.7°C
Dew Point 36.3°F2.4°C 36.3°F2.4°C 32.5°F0.3°C 34.3°F1.3°C
Winds 13.3 mph NW21.4 kmh NW 22.2 mph W35.7 kmh W - 10.2 mph 16.4 kmh
Wind Gusts 16.7 mph26.9 kmh 38.1 mph61.3 kmh - -
Humidity 86% 87% 72% 79%
Pressure 29.30 in992.2 mb 29.41 in995.9 mb 29.18 in988.1 mb -
Precipitation - 0.29 in7.4 mm - -
Hour Temp Dew Point Humidity Winds Wind Gusts Pressure Precip Precip Rate Daily Precip Total
10:40 PM 40.2°F4.6°C 36.3°F2.4°C 86% 13.3 mph NW21.4 kmh NW 16.7 mph26.9 kmh 29.30 in992.2 mb 0.00 in0.0 mm 0.00 in0.0 mm 0.29 in7.4 mm
10:35 PM 40.0°F4.4°C 36.2°F2.3°C 86% 12.1 mph WNW19.5 kmh WNW 16.7 mph26.9 kmh 29.30 in992.2 mb 0.00 in0.0 mm 0.00 in0.0 mm 0.29 in7.4 mm
10:30 PM 39.8°F4.3°C 36.0°F2.2°C 86% 9.3 mph W15.0 kmh W 16.1 mph25.9 kmh 29.30 in992.2 mb 0.00 in0.0 mm 0.00 in0.0 mm 0.29 in7.4 mm
10:25 PM 39.7°F4.3°C 36.1°F2.3°C 87% 8.5 mph W13.7 kmh W 16.1 mph25.9 kmh 29.30 in992.2 mb 0.00 in0.0 mm 0.00 in0.0 mm 0.29 in7.4 mm
10:20 PM 39.5°F4.2°C 35.9°F2.2°C 87% 8.9 mph W14.3 kmh W 14.3 mph23.0 kmh 29.30 in992.2 mb 0.00 in0.0 mm 0.00 in0.0 mm 0.29 in7.4 mm
10:15 PM 39.3°F4.1°C 35.5°F1.9°C 86% 7.1 mph WNW11.4 kmh WNW 14.3 mph23.0 kmh 29.30 in992.2 mb 0.00 in0.0 mm 0.00 in0.0 mm 0.29 in7.4 mm
10:10 PM 39.3°F4.1°C 35.5°F1.9°C 86% 7.0 mph W11.3 kmh W 11.6 mph18.7 kmh 29.30 in992.2 mb 0.00 in0.0 mm 0.00 in0.0 mm 0.29 in7.4 mm
10:05 PM 39.1°F3.9°C 35.3°F1.8°C 86% 8.9 mph WNW14.3 kmh WNW 11.6 mph18.7 kmh 29.30 in992.2 mb 0.00 in0.0 mm 0.00 in0.0 mm 0.29 in7.4 mm
10:00 PM 39.1°F3.9°C 35.3°F1.8°C 86% 8.2 mph WNW13.2 kmh WNW 11.6 mph18.7 kmh 29.30 in992.2 mb 0.00 in0.0 mm 0.00 in0.0 mm 0.29 in7.4 mm
09:55 PM 39.1°F3.9°C 35.3°F1.8°C 86% 7.3 mph WNW11.7 kmh WNW 11.3 mph18.2 kmh 29.27 in991.2 mb 0.00 in0.0 mm 0.00 in0.0 mm 0.29 in7.4 mm
09:50 PM 39.1°F3.9°C 35.3°F1.8°C 86% 7.0 mph NW11.3 kmh NW 11.3 mph18.2 kmh 29.27 in991.2 mb 0.00 in0.0 mm 0.00 in0.0 mm 0.29 in7.4 mm
09:45 PM 39.1°F3.9°C 35.3°F1.8°C 86% 6.4 mph WNW10.3 kmh WNW 8.3 mph13.4 kmh 29.27 in991.2 mb 0.00 in0.0 mm 0.00 in0.0 mm 0.29 in7.4 mm
09:40 PM 39.1°F3.9°C 35.3°F1.8°C 86% 5.1 mph WNW8.2 kmh WNW 8.3 mph13.4 kmh 29.27 in991.2 mb 0.00 in0.0 mm 0.00 in0.0 mm 0.29 in7.4 mm
09:35 PM 39.3°F4.1°C 35.5°F1.9°C 86% 3.5 mph W5.6 kmh W 8.0 mph12.9 kmh 29.27 in991.2 mb 0.00 in0.0 mm 0.00 in0.0 mm 0.29 in7.4 mm
09:30 PM 39.3°F4.1°C 35.5°F1.9°C 86% 3.3 mph WSW5.3 kmh WSW 8.3 mph13.4 kmh 29.27 in991.2 mb 0.00 in0.0 mm 0.00 in0.0 mm 0.29 in7.4 mm
09:25 PM 39.5°F4.2°C 35.6°F2.0°C 86% 4.6 mph W7.4 kmh W 8.3 mph13.4 kmh 29.27 in991.2 mb 0.00 in0.0 mm 0.00 in0.0 mm 0.29 in7.4 mm
09:20 PM 39.5°F4.2°C 35.9°F2.2°C 87% 5.1 mph WNW8.2 kmh WNW 8.0 mph12.9 kmh 29.27 in991.2 mb 0.00 in0.0 mm 0.00 in0.0 mm 0.29 in7.4 mm
09:15 PM 39.7°F4.3°C 36.1°F2.3°C 87% 6.1 mph WNW9.8 kmh WNW 13.4 mph21.6 kmh 29.27 in991.2 mb 0.00 in0.0 mm 0.00 in0.0 mm 0.29 in7.4 mm
09:10 PM 39.7°F4.3°C 36.1°F2.3°C 87% 7.7 mph NW12.4 kmh NW 13.4 mph21.6 kmh 29.27 in991.2 mb 0.00 in0.0 mm 0.00 in0.0 mm 0.29 in7.4 mm
09:05 PM 39.5°F4.2°C 35.9°F2.2°C 87% 7.4 mph WNW11.9 kmh WNW 10.7 mph17.2 kmh 29.27 in991.2 mb 0.00 in0.0 mm 0.00 in0.0 mm 0.29 in7.4 mm
09:00 PM 39.3°F4.1°C 35.7°F2.1°C 87% 6.9 mph WNW11.1 kmh WNW 9.5 mph15.3 kmh 29.27 in991.2 mb 0.00 in0.0 mm 0.00 in0.0 mm 0.29 in7.4 mm
08:55 PM 39.5°F4.2°C 35.9°F2.2°C 87% 6.3 mph WNW10.1 kmh WNW 9.2 mph14.8 kmh 29.24 in990.2 mb 0.00 in0.0 mm 0.00 in0.0 mm 0.29 in7.4 mm
08:50 PM 39.5°F4.2°C 35.6°F2.0°C 86% 5.7 mph W9.2 kmh W 9.2 mph14.8 kmh 29.24 in990.2 mb 0.00 in0.0 mm 0.00 in0.0 mm 0.29 in7.4 mm
08:45 PM 39.5°F4.2°C 35.6°F2.0°C 86% 5.8 mph W9.3 kmh W 8.3 mph13.4 kmh 29.24 in990.2 mb 0.00 in0.0 mm 0.00 in0.0 mm 0.29 in7.4 mm
08:40 PM 39.7°F4.3°C 35.8°F2.1°C 86% 6.4 mph W10.3 kmh W 8.3 mph13.4 kmh 29.24 in990.2 mb 0.00 in0.0 mm 0.00 in0.0 mm 0.29 in7.4 mm
08:35 PM 39.8°F4.3°C 36.0°F2.2°C 86% 6.3 mph W10.1 kmh W 8.6 mph13.8 kmh 29.24 in990.2 mb 0.00 in0.0 mm 0.00 in0.0 mm 0.29 in7.4 mm
08:30 PM 40.0°F4.4°C 36.2°F2.3°C 86% 6.2 mph W10.0 kmh W 8.6 mph13.8 kmh 29.24 in990.2 mb 0.00 in0.0 mm 0.00 in0.0 mm 0.29 in7.4 mm
08:25 PM 40.0°F4.4°C 36.2°F2.3°C 86% 6.5 mph W10.5 kmh W 8.0 mph12.9 kmh 29.24 in990.2 mb 0.00 in0.0 mm 0.00 in0.0 mm 0.29 in7.4 mm
08:20 PM 40.2°F4.6°C 36.3°F2.4°C 86% 7.7 mph WNW12.4 kmh WNW 12.8 mph20.6 kmh 29.24 in990.2 mb 0.00 in0.0 mm 0.00 in0.0 mm 0.29 in7.4 mm
08:15 PM 40.2°F4.6°C 36.3°F2.4°C 86% 8.5 mph NW13.7 kmh NW 12.8 mph20.6 kmh 29.24 in990.2 mb 0.00 in0.0 mm 0.00 in0.0 mm 0.29 in7.4 mm
08:10 PM 40.0°F4.4°C 36.2°F2.3°C 86% 8.5 mph WNW13.7 kmh WNW 11.3 mph18.2 kmh 29.24 in990.2 mb 0.00 in0.0 mm 0.00 in0.0 mm 0.29 in7.4 mm
08:05 PM 40.0°F4.4°C 36.2°F2.3°C 86% 7.5 mph WNW12.1 kmh WNW 11.3 mph18.2 kmh 29.24 in990.2 mb 0.00 in0.0 mm 0.00 in0.0 mm 0.29 in7.4 mm
08:00 PM 40.0°F4.4°C 36.2°F2.3°C 86% 7.0 mph W11.3 kmh W 10.7 mph17.2 kmh 29.24 in990.2 mb 0.00 in0.0 mm 0.00 in0.0 mm 0.29 in7.4 mm
07:55 PM 39.8°F4.3°C 36.0°F2.2°C 86% 7.8 mph W12.6 kmh W 12.8 mph20.6 kmh 29.21 in989.2 mb 0.00 in0.0 mm 0.00 in0.0 mm 0.29 in7.4 mm
07:50 PM 39.8°F4.3°C 36.0°F2.2°C 86% 6.9 mph W11.1 kmh W 12.8 mph20.6 kmh 29.21 in989.2 mb 0.00 in0.0 mm 0.00 in0.0 mm 0.29 in7.4 mm
07:45 PM 39.7°F4.3°C 35.8°F2.1°C 86% 6.0 mph WNW9.7 kmh WNW 8.0 mph12.9 kmh 29.21 in989.2 mb 0.00 in0.0 mm 0.00 in0.0 mm 0.29 in7.4 mm
07:40 PM 39.7°F4.3°C 35.8°F2.1°C 86% 5.7 mph WNW9.2 kmh WNW 8.0 mph12.9 kmh 29.24 in990.2 mb 0.00 in0.0 mm 0.00 in0.0 mm 0.29 in7.4 mm
07:35 PM 39.5°F4.2°C 35.6°F2.0°C 86% 5.4 mph WNW8.7 kmh WNW 7.7 mph12.4 kmh 29.24 in990.2 mb 0.00 in0.0 mm 0.00 in0.0 mm 0.29 in7.4 mm
07:30 PM 39.5°F4.2°C 35.6°F2.0°C 86% 4.9 mph WNW7.9 kmh WNW 7.1 mph11.4 kmh 29.24 in990.2 mb 0.00 in0.0 mm 0.00 in0.0 mm 0.29 in7.4 mm
07:25 PM 39.7°F4.3°C 35.8°F2.1°C 86% 5.6 mph WNW9.0 kmh WNW 9.5 mph15.3 kmh 29.21 in989.2 mb 0.00 in0.0 mm 0.00 in0.0 mm 0.29 in7.4 mm
07:20 PM 39.8°F4.3°C 36.0°F2.2°C 86% 6.4 mph WNW10.3 kmh WNW 9.5 mph15.3 kmh 29.21 in989.2 mb 0.00 in0.0 mm 0.00 in0.0 mm 0.29 in7.4 mm
07:15 PM 39.8°F4.3°C 36.0°F2.2°C 86% 6.9 mph WNW11.1 kmh WNW 10.1 mph16.3 kmh 29.21 in989.2 mb 0.00 in0.0 mm 0.00 in0.0 mm 0.29 in7.4 mm
07:10 PM 39.8°F4.3°C 36.0°F2.2°C 86% 6.2 mph W10.0 kmh W 10.1 mph16.3 kmh 29.21 in989.2 mb 0.04 in1.0 mm 0.00 in0.0 mm 0.29 in7.4 mm
07:05 PM 40.0°F4.4°C 36.2°F2.3°C 86% 5.9 mph W9.5 kmh W 8.0 mph12.9 kmh 29.21 in989.2 mb 0.04 in1.0 mm 0.00 in0.0 mm 0.29 in7.4 mm
07:00 PM 40.0°F4.4°C 36.2°F2.3°C 86% 7.5 mph WNW12.1 kmh WNW 11.3 mph18.2 kmh 29.21 in989.2 mb 0.04 in1.0 mm 0.00 in0.0 mm 0.29 in7.4 mm
06:55 PM 39.8°F4.3°C 36.0°F2.2°C 86% 7.5 mph WNW12.1 kmh WNW 11.3 mph18.2 kmh 29.18 in988.1 mb 0.04 in1.0 mm 0.00 in0.0 mm 0.29 in7.4 mm
06:50 PM 39.7°F4.3°C 36.1°F2.3°C 87% 5.2 mph W8.4 kmh W 8.3 mph13.4 kmh 29.18 in988.1 mb 0.04 in1.0 mm 0.00 in0.0 mm 0.29 in7.4 mm
06:45 PM 39.7°F4.3°C 36.1°F2.3°C 87% 4.1 mph W6.6 kmh W 5.4 mph8.7 kmh 29.18 in988.1 mb 0.04 in1.0 mm 0.00 in0.0 mm 0.29 in7.4 mm
06:40 PM 39.7°F4.3°C 35.8°F2.1°C 86% 3.1 mph W5.0 kmh W 5.1 mph8.2 kmh 29.18 in988.1 mb 0.08 in2.0 mm 0.00 in0.0 mm 0.29 in7.4 mm
06:35 PM 39.8°F4.3°C 36.0°F2.2°C 86% 2.9 mph W4.7 kmh W 5.4 mph8.7 kmh 29.18 in988.1 mb 0.08 in2.0 mm 0.00 in0.0 mm 0.29 in7.4 mm
06:30 PM 39.8°F4.3°C 36.0°F2.2°C 86% 3.7 mph W6.0 kmh W 5.4 mph8.7 kmh 29.18 in988.1 mb 0.08 in2.0 mm 0.00 in0.0 mm 0.29 in7.4 mm
06:25 PM 39.8°F4.3°C 36.0°F2.2°C 86% 4.2 mph W6.8 kmh W 8.3 mph13.4 kmh 29.18 in988.1 mb 0.08 in2.0 mm 0.00 in0.0 mm 0.29 in7.4 mm
06:20 PM 39.8°F4.3°C 36.0°F2.2°C 86% 2.7 mph WSW4.3 kmh WSW 8.3 mph13.4 kmh 29.18 in988.1 mb 0.08 in2.0 mm 0.00 in0.0 mm 0.29 in7.4 mm
06:15 PM 39.8°F4.3°C 35.7°F2.1°C 85% 1.7 mph SSW2.7 kmh SSW 3.6 mph5.8 kmh 29.18 in988.1 mb 0.08 in2.0 mm 0.48 in12.2 mm 0.29 in7.4 mm
06:10 PM 39.8°F4.3°C 35.7°F2.1°C 85% 2.6 mph SSW4.2 kmh SSW 4.2 mph6.8 kmh 29.18 in988.1 mb 0.04 in1.0 mm 0.00 in0.0 mm 0.25 in6.4 mm
06:05 PM 39.8°F4.3°C 35.7°F2.1°C 85% 3.3 mph SSW5.3 kmh SSW 4.2 mph6.8 kmh 29.18 in988.1 mb 0.04 in1.0 mm 0.00 in0.0 mm 0.25 in6.4 mm
06:00 PM 39.8°F4.3°C 35.7°F2.1°C 85% 2.7 mph SSW4.3 kmh SSW 4.2 mph6.8 kmh 29.18 in988.1 mb 0.04 in1.0 mm 0.00 in0.0 mm 0.25 in6.4 mm
05:55 PM 39.8°F4.3°C 35.4°F1.9°C 84% 3.6 mph SW5.8 kmh SW 7.1 mph11.4 kmh 29.18 in988.1 mb 0.04 in1.0 mm 0.00 in0.0 mm 0.25 in6.4 mm
05:50 PM 40.0°F4.4°C 35.6°F2.0°C 84% 3.6 mph SW5.8 kmh SW 7.1 mph11.4 kmh 29.18 in988.1 mb 0.04 in1.0 mm 0.00 in0.0 mm 0.25 in6.4 mm
05:45 PM 40.0°F4.4°C 35.6°F2.0°C 84% 2.6 mph S4.2 kmh S 3.9 mph6.3 kmh 29.18 in988.1 mb 0.04 in1.0 mm 0.48 in12.2 mm 0.25 in6.4 mm
05:40 PM 39.8°F4.3°C 35.4°F1.9°C 84% 2.1 mph SSW3.4 kmh SSW 3.9 mph6.3 kmh 29.18 in988.1 mb 0.00 in0.0 mm 0.00 in0.0 mm 0.21 in5.3 mm
05:35 PM 39.8°F4.3°C 35.4°F1.9°C 84% 2.5 mph WSW4.0 kmh WSW 3.9 mph6.3 kmh 29.18 in988.1 mb 0.00 in0.0 mm 0.00 in0.0 mm 0.21 in5.3 mm
05:30 PM 39.8°F4.3°C 35.1°F1.7°C 83% 3.2 mph W5.1 kmh W 5.4 mph8.7 kmh 29.18 in988.1 mb 0.00 in0.0 mm 0.00 in0.0 mm 0.21 in5.3 mm
05:25 PM 39.8°F4.3°C 35.1°F1.7°C 83% 3.8 mph WNW6.1 kmh WNW 5.4 mph8.7 kmh 29.21 in989.2 mb 0.04 in1.0 mm 0.00 in0.0 mm 0.21 in5.3 mm
05:20 PM 39.8°F4.3°C 35.1°F1.7°C 83% 4.5 mph WSW7.2 kmh WSW 5.7 mph9.2 kmh 29.21 in989.2 mb 0.04 in1.0 mm 0.00 in0.0 mm 0.21 in5.3 mm
05:15 PM 39.8°F4.3°C 35.1°F1.7°C 83% 3.7 mph SW6.0 kmh SW 5.7 mph9.2 kmh 29.21 in989.2 mb 0.04 in1.0 mm 0.00 in0.0 mm 0.21 in5.3 mm
05:10 PM 39.7°F4.3°C 34.9°F1.6°C 83% 3.2 mph WSW5.1 kmh WSW 6.2 mph10.0 kmh 29.21 in989.2 mb 0.08 in2.0 mm 0.00 in0.0 mm 0.21 in5.3 mm
05:05 PM 39.7°F4.3°C 34.9°F1.6°C 83% 4.1 mph WSW6.6 kmh WSW 8.3 mph13.4 kmh 29.21 in989.2 mb 0.08 in2.0 mm 0.00 in0.0 mm 0.21 in5.3 mm
05:00 PM 39.7°F4.3°C 34.6°F1.4°C 82% 5.2 mph WSW8.4 kmh WSW 8.3 mph13.4 kmh 29.21 in989.2 mb 0.08 in2.0 mm 0.00 in0.0 mm 0.21 in5.3 mm
04:55 PM 39.5°F4.2°C 34.1°F1.2°C 81% 6.9 mph W11.1 kmh W 9.5 mph15.3 kmh 29.21 in989.2 mb 0.08 in2.0 mm 0.00 in0.0 mm 0.21 in5.3 mm
04:50 PM 39.5°F4.2°C 34.1°F1.2°C 81% 8.0 mph W12.9 kmh W 9.8 mph15.8 kmh 29.21 in989.2 mb 0.12 in3.0 mm 0.00 in0.0 mm 0.21 in5.3 mm
04:45 PM 39.3°F4.1°C 33.6°F0.9°C 80% 8.3 mph W13.4 kmh W 9.8 mph15.8 kmh 29.21 in989.2 mb 0.12 in3.0 mm 0.00 in0.0 mm 0.21 in5.3 mm
04:40 PM 39.5°F4.2°C 33.8°F1.0°C 80% 8.7 mph W14.0 kmh W 16.4 mph26.4 kmh 29.21 in989.2 mb 0.12 in3.0 mm 0.00 in0.0 mm 0.21 in5.3 mm
04:35 PM 39.5°F4.2°C 33.5°F0.8°C 79% 6.4 mph W10.3 kmh W 16.4 mph26.4 kmh 29.21 in989.2 mb 0.12 in3.0 mm 0.48 in12.2 mm 0.21 in5.3 mm
04:30 PM 39.5°F4.2°C 33.5°F0.8°C 79% 5.5 mph WNW8.9 kmh WNW 10.1 mph16.3 kmh 29.21 in989.2 mb 0.08 in2.0 mm 0.00 in0.0 mm 0.17 in4.3 mm
04:25 PM 39.7°F4.3°C 33.4°F0.8°C 78% 7.5 mph WNW12.1 kmh WNW 10.1 mph16.3 kmh 29.21 in989.2 mb 0.08 in2.0 mm 0.00 in0.0 mm 0.17 in4.3 mm
04:20 PM 39.7°F4.3°C 33.4°F0.8°C 78% 7.6 mph WNW12.2 kmh WNW 10.1 mph16.3 kmh 29.21 in989.2 mb 0.08 in2.0 mm 0.48 in12.2 mm 0.17 in4.3 mm
04:15 PM 40.0°F4.4°C 33.4°F0.8°C 77% 7.5 mph WNW12.1 kmh WNW 12.2 mph19.6 kmh 29.21 in989.2 mb 0.04 in1.0 mm 0.00 in0.0 mm 0.13 in3.3 mm
04:10 PM 40.4°F4.7°C 33.7°F0.9°C 77% 10.5 mph WNW16.9 kmh WNW 28.0 mph45.1 kmh 29.21 in989.2 mb 0.04 in1.0 mm 0.00 in0.0 mm 0.13 in3.3 mm
04:05 PM 40.7°F4.8°C 34.1°F1.2°C 77% 10.7 mph W17.2 kmh W 28.0 mph45.1 kmh 29.21 in989.2 mb 0.04 in1.0 mm 0.00 in0.0 mm 0.13 in3.3 mm
04:00 PM 41.1°F5.1°C 34.4°F1.3°C 77% 6.7 mph WSW10.8 kmh WSW 11.6 mph18.7 kmh 29.21 in989.2 mb 0.04 in1.0 mm 0.00 in0.0 mm 0.13 in3.3 mm
03:55 PM 41.1°F5.1°C 34.4°F1.3°C 77% 6.5 mph W10.5 kmh W 11.3 mph18.2 kmh 29.21 in989.2 mb 0.04 in1.0 mm 0.48 in12.2 mm 0.13 in3.3 mm
03:50 PM 41.1°F5.1°C 34.1°F1.2°C 76% 7.4 mph W11.9 kmh W 14.6 mph23.5 kmh 29.21 in989.2 mb 0.00 in0.0 mm 0.00 in0.0 mm 0.09 in2.3 mm
03:45 PM 41.6°F5.3°C 34.3°F1.3°C 75% 7.8 mph W12.6 kmh W 14.6 mph23.5 kmh 29.21 in989.2 mb 0.00 in0.0 mm 0.00 in0.0 mm 0.09 in2.3 mm
03:40 PM 41.6°F5.3°C 34.3°F1.3°C 75% 10.3 mph W16.6 kmh W 14.6 mph23.5 kmh 29.21 in989.2 mb 0.00 in0.0 mm 0.00 in0.0 mm 0.09 in2.3 mm
03:35 PM 42.3°F5.7°C 35.0°F1.7°C 75% 9.8 mph WNW15.8 kmh WNW 14.6 mph23.5 kmh 29.21 in989.2 mb 0.00 in0.0 mm 0.00 in0.0 mm 0.09 in2.3 mm
03:30 PM 42.7°F5.9°C 35.3°F1.8°C 75% 8.0 mph WNW12.9 kmh WNW 14.0 mph22.5 kmh 29.21 in989.2 mb 0.00 in0.0 mm 0.00 in0.0 mm 0.09 in2.3 mm
03:25 PM 42.7°F5.9°C 35.0°F1.7°C 74% 8.8 mph WNW14.2 kmh WNW 12.8 mph20.6 kmh 29.21 in989.2 mb 0.00 in0.0 mm 0.00 in0.0 mm 0.09 in2.3 mm
03:20 PM 42.7°F5.9°C 35.0°F1.7°C 74% 8.9 mph WNW14.3 kmh WNW 12.8 mph20.6 kmh 29.21 in989.2 mb 0.00 in0.0 mm 0.00 in0.0 mm 0.09 in2.3 mm
03:15 PM 42.7°F5.9°C 35.0°F1.7°C 74% 9.0 mph W14.5 kmh W 14.6 mph23.5 kmh 29.21 in989.2 mb 0.00 in0.0 mm 0.00 in0.0 mm 0.09 in2.3 mm
03:10 PM 42.7°F5.9°C 35.0°F1.7°C 74% 9.6 mph W15.4 kmh W 14.6 mph23.5 kmh 29.24 in990.2 mb 0.00 in0.0 mm 0.00 in0.0 mm 0.09 in2.3 mm
03:05 PM 42.7°F5.9°C 35.0°F1.7°C 74% 10.9 mph W17.5 kmh W 18.4 mph29.6 kmh 29.24 in990.2 mb 0.00 in0.0 mm 0.00 in0.0 mm 0.09 in2.3 mm
03:00 PM 42.5°F5.8°C 34.8°F1.6°C 74% 9.7 mph W15.6 kmh W 18.4 mph29.6 kmh 29.24 in990.2 mb 0.00 in0.0 mm 0.00 in0.0 mm 0.09 in2.3 mm
02:55 PM 42.5°F5.8°C 34.8°F1.6°C 74% 8.8 mph W14.2 kmh W 13.4 mph21.6 kmh 29.24 in990.2 mb 0.00 in0.0 mm 0.00 in0.0 mm 0.09 in2.3 mm
02:50 PM 42.5°F5.8°C 34.8°F1.6°C 74% 11.2 mph W18.0 kmh W 17.0 mph27.4 kmh 29.24 in990.2 mb 0.00 in0.0 mm 0.00 in0.0 mm 0.09 in2.3 mm
02:45 PM 42.5°F5.8°C 34.8°F1.6°C 74% 11.4 mph W18.3 kmh W 17.0 mph27.4 kmh 29.24 in990.2 mb 0.00 in0.0 mm 0.00 in0.0 mm 0.09 in2.3 mm
02:40 PM 42.3°F5.7°C 35.0°F1.7°C 75% 9.4 mph W15.1 kmh W 17.0 mph27.4 kmh 29.24 in990.2 mb 0.00 in0.0 mm 0.00 in0.0 mm 0.09 in2.3 mm
02:35 PM 42.3°F5.7°C 35.0°F1.7°C 75% 9.6 mph W15.4 kmh W 17.0 mph27.4 kmh 29.24 in990.2 mb 0.00 in0.0 mm 0.00 in0.0 mm 0.09 in2.3 mm
02:30 PM 42.3°F5.7°C 35.0°F1.7°C 75% 11.4 mph WNW18.3 kmh WNW 16.1 mph25.9 kmh 29.24 in990.2 mb 0.00 in0.0 mm 0.00 in0.0 mm 0.09 in2.3 mm
02:25 PM 42.5°F5.8°C 35.5°F1.9°C 76% 10.7 mph WNW17.2 kmh WNW 16.1 mph25.9 kmh 29.24 in990.2 mb 0.00 in0.0 mm 0.00 in0.0 mm 0.09 in2.3 mm
02:20 PM 42.2°F5.7°C 35.1°F1.7°C 76% 9.3 mph W15.0 kmh W 14.6 mph23.5 kmh 29.24 in990.2 mb 0.00 in0.0 mm 0.00 in0.0 mm 0.09 in2.3 mm
02:15 PM 42.2°F5.7°C 35.1°F1.7°C 76% 10.5 mph W16.9 kmh W 16.7 mph26.9 kmh 29.24 in990.2 mb 0.00 in0.0 mm 0.00 in0.0 mm 0.09 in2.3 mm
02:10 PM 41.8°F5.4°C 34.8°F1.6°C 76% 10.8 mph W17.4 kmh W 16.7 mph26.9 kmh 29.24 in990.2 mb 0.00 in0.0 mm 0.00 in0.0 mm 0.09 in2.3 mm
02:05 PM 41.3°F5.2°C 34.6°F1.4°C 77% 8.2 mph W13.2 kmh W 13.7 mph22.0 kmh 29.24 in990.2 mb 0.00 in0.0 mm 0.00 in0.0 mm 0.09 in2.3 mm
02:00 PM 40.9°F4.9°C 34.3°F1.3°C 77% 8.6 mph W13.8 kmh W 14.6 mph23.5 kmh 29.24 in990.2 mb 0.00 in0.0 mm 0.00 in0.0 mm 0.09 in2.3 mm
01:55 PM 40.5°F4.7°C 33.9°F1.1°C 77% 8.8 mph W14.2 kmh W 14.6 mph23.5 kmh 29.24 in990.2 mb 0.00 in0.0 mm 0.00 in0.0 mm 0.09 in2.3 mm
01:50 PM 40.5°F4.7°C 33.9°F1.1°C 77% 9.1 mph W14.6 kmh W 14.6 mph23.5 kmh 29.24 in990.2 mb 0.00 in0.0 mm 0.00 in0.0 mm 0.09 in2.3 mm
01:45 PM 40.5°F4.7°C 33.9°F1.1°C 77% 9.3 mph W15.0 kmh W 14.6 mph23.5 kmh 29.24 in990.2 mb 0.00 in0.0 mm 0.00 in0.0 mm 0.09 in2.3 mm
01:40 PM 40.5°F4.7°C 34.2°F1.2°C 78% 8.7 mph W14.0 kmh W 13.7 mph22.0 kmh 29.27 in991.2 mb 0.00 in0.0 mm 0.00 in0.0 mm 0.09 in2.3 mm
01:35 PM 40.5°F4.7°C 34.2°F1.2°C 78% 7.6 mph W12.2 kmh W 13.7 mph22.0 kmh 29.27 in991.2 mb 0.00 in0.0 mm 0.00 in0.0 mm 0.09 in2.3 mm
01:30 PM 40.5°F4.7°C 34.5°F1.4°C 79% 6.4 mph W10.3 kmh W 8.9 mph14.3 kmh 29.27 in991.2 mb 0.00 in0.0 mm 0.00 in0.0 mm 0.09 in2.3 mm
01:25 PM 40.5°F4.7°C 34.5°F1.4°C 79% 8.4 mph W13.5 kmh W 14.6 mph23.5 kmh 29.27 in991.2 mb 0.00 in0.0 mm 0.00 in0.0 mm 0.09 in2.3 mm
01:20 PM 40.4°F4.7°C 34.1°F1.2°C 78% 9.3 mph W15.0 kmh W 14.6 mph23.5 kmh 29.27 in991.2 mb 0.00 in0.0 mm 0.00 in0.0 mm 0.09 in2.3 mm
01:15 PM 40.0°F4.4°C 33.7°F0.9°C 78% 8.9 mph W14.3 kmh W 14.3 mph23.0 kmh 29.27 in991.2 mb 0.00 in0.0 mm 0.00 in0.0 mm 0.09 in2.3 mm
01:10 PM 39.8°F4.3°C 33.5°F0.8°C 78% 7.7 mph W12.4 kmh W 14.3 mph23.0 kmh 29.27 in991.2 mb 0.00 in0.0 mm 0.00 in0.0 mm 0.09 in2.3 mm
01:05 PM 39.5°F4.2°C 33.2°F0.7°C 78% 4.7 mph W7.6 kmh W 10.4 mph16.7 kmh 29.27 in991.2 mb 0.00 in0.0 mm 0.00 in0.0 mm 0.09 in2.3 mm
01:00 PM 39.3°F4.1°C 33.0°F0.6°C 78% 4.5 mph W7.2 kmh W 7.1 mph11.4 kmh 29.27 in991.2 mb 0.00 in0.0 mm 0.00 in0.0 mm 0.09 in2.3 mm
12:55 PM 39.3°F4.1°C 33.0°F0.6°C 78% 5.5 mph W8.9 kmh W 8.3 mph13.4 kmh 29.27 in991.2 mb 0.00 in0.0 mm 0.00 in0.0 mm 0.09 in2.3 mm
12:50 PM 39.3°F4.1°C 32.7°F0.4°C 77% 6.2 mph W10.0 kmh W 10.1 mph16.3 kmh 29.27 in991.2 mb 0.00 in0.0 mm 0.00 in0.0 mm 0.09 in2.3 mm
12:45 PM 39.3°F4.1°C 32.7°F0.4°C 77% 7.4 mph W11.9 kmh W 13.4 mph21.6 kmh 29.27 in991.2 mb 0.00 in0.0 mm 0.00 in0.0 mm 0.09 in2.3 mm
12:40 PM 39.3°F4.1°C 32.7°F0.4°C 77% 9.1 mph W14.6 kmh W 13.4 mph21.6 kmh 29.30 in992.2 mb 0.00 in0.0 mm 0.00 in0.0 mm 0.09 in2.3 mm
12:35 PM 39.7°F4.3°C 33.0°F0.6°C 77% 9.7 mph WNW15.6 kmh WNW 22.6 mph36.4 kmh 29.30 in992.2 mb 0.00 in0.0 mm 0.00 in0.0 mm 0.09 in2.3 mm
12:30 PM 39.8°F4.3°C 32.9°F0.5°C 76% 8.9 mph NW14.3 kmh NW 22.6 mph36.4 kmh 29.30 in992.2 mb 0.00 in0.0 mm 0.00 in0.0 mm 0.09 in2.3 mm
12:25 PM 39.8°F4.3°C 32.9°F0.5°C 76% 8.4 mph NW13.5 kmh NW 12.8 mph20.6 kmh 29.30 in992.2 mb 0.00 in0.0 mm 0.00 in0.0 mm 0.09 in2.3 mm
12:20 PM 39.8°F4.3°C 32.9°F0.5°C 76% 7.8 mph W12.6 kmh W 11.3 mph18.2 kmh 29.30 in992.2 mb 0.00 in0.0 mm 0.00 in0.0 mm 0.09 in2.3 mm
12:15 PM 40.0°F4.4°C 33.1°F0.6°C 76% 7.2 mph W11.6 kmh W 14.0 mph22.5 kmh 29.30 in992.2 mb 0.00 in0.0 mm 0.00 in0.0 mm 0.09 in2.3 mm
12:10 PM 40.0°F4.4°C 33.1°F0.6°C 76% 8.6 mph W13.8 kmh W 14.6 mph23.5 kmh 29.30 in992.2 mb 0.00 in0.0 mm 0.00 in0.0 mm 0.09 in2.3 mm
12:05 PM 40.4°F4.7°C 33.4°F0.8°C 76% 9.9 mph W15.9 kmh W 14.6 mph23.5 kmh 29.30 in992.2 mb 0.00 in0.0 mm 0.00 in0.0 mm 0.09 in2.3 mm
12:00 PM 40.7°F4.8°C 33.8°F1.0°C 76% 10.3 mph WNW16.6 kmh WNW 13.4 mph21.6 kmh 29.30 in992.2 mb 0.00 in0.0 mm 0.00 in0.0 mm 0.09 in2.3 mm
11:55 AM 40.7°F4.8°C 33.8°F1.0°C 76% 7.8 mph WNW12.6 kmh WNW 11.3 mph18.2 kmh 29.33 in993.2 mb 0.00 in0.0 mm 0.00 in0.0 mm 0.09 in2.3 mm
11:50 AM 40.7°F4.8°C 33.8°F1.0°C 76% 6.7 mph WNW10.8 kmh WNW 11.3 mph18.2 kmh 29.33 in993.2 mb 0.00 in0.0 mm 0.00 in0.0 mm 0.09 in2.3 mm
11:45 AM 40.5°F4.7°C 33.6°F0.9°C 76% 7.0 mph WNW11.3 kmh WNW 10.4 mph16.7 kmh 29.33 in993.2 mb 0.00 in0.0 mm 0.00 in0.0 mm 0.09 in2.3 mm
11:40 AM 40.4°F4.7°C 33.4°F0.8°C 76% 6.0 mph WNW9.7 kmh WNW 10.4 mph16.7 kmh 29.33 in993.2 mb 0.00 in0.0 mm 0.00 in0.0 mm 0.09 in2.3 mm
11:35 AM 40.0°F4.4°C 33.1°F0.6°C 76% 4.5 mph NW7.2 kmh NW 10.4 mph16.7 kmh 29.33 in993.2 mb 0.00 in0.0 mm 0.00 in0.0 mm 0.09 in2.3 mm
11:30 AM 40.0°F4.4°C 33.1°F0.6°C 76% 6.0 mph NW9.7 kmh NW 10.7 mph17.2 kmh 29.33 in993.2 mb 0.00 in0.0 mm 0.00 in0.0 mm 0.09 in2.3 mm
11:25 AM 40.0°F4.4°C 33.1°F0.6°C 76% 8.0 mph NW12.9 kmh NW 11.6 mph18.7 kmh 29.33 in993.2 mb 0.00 in0.0 mm 0.00 in0.0 mm 0.09 in2.3 mm
11:20 AM 40.2°F4.6°C 33.2°F0.7°C 76% 8.0 mph NW12.9 kmh NW 13.1 mph21.1 kmh 29.33 in993.2 mb 0.00 in0.0 mm 0.00 in0.0 mm 0.09 in2.3 mm
11:15 AM 40.4°F4.7°C 33.4°F0.8°C 76% 8.1 mph NW13.0 kmh NW 13.1 mph21.1 kmh 29.33 in993.2 mb 0.00 in0.0 mm 0.00 in0.0 mm 0.09 in2.3 mm
11:10 AM 40.5°F4.7°C 33.6°F0.9°C 76% 10.8 mph NW17.4 kmh NW 19.0 mph30.6 kmh 29.33 in993.2 mb 0.00 in0.0 mm 0.00 in0.0 mm 0.09 in2.3 mm
11:05 AM 40.7°F4.8°C 33.8°F1.0°C 76% 10.4 mph NW16.7 kmh NW 19.0 mph30.6 kmh 29.33 in993.2 mb 0.00 in0.0 mm 0.00 in0.0 mm 0.09 in2.3 mm
11:00 AM 40.7°F4.8°C 33.8°F1.0°C 76% 10.2 mph WNW16.4 kmh WNW 13.7 mph22.0 kmh 29.33 in993.2 mb 0.00 in0.0 mm 0.00 in0.0 mm 0.09 in2.3 mm
10:55 AM 40.7°F4.8°C 33.8°F1.0°C 76% 15.9 mph WNW25.6 kmh WNW 26.2 mph42.2 kmh 29.33 in993.2 mb 0.00 in0.0 mm 0.00 in0.0 mm 0.09 in2.3 mm
10:50 AM 40.5°F4.7°C 33.6°F0.9°C 76% 19.1 mph WNW30.7 kmh WNW 26.2 mph42.2 kmh 29.33 in993.2 mb 0.00 in0.0 mm 0.00 in0.0 mm 0.09 in2.3 mm
10:45 AM 40.4°F4.7°C 33.7°F0.9°C 77% 14.2 mph W22.9 kmh W 23.5 mph37.8 kmh 29.33 in993.2 mb 0.00 in0.0 mm 0.00 in0.0 mm 0.09 in2.3 mm
10:40 AM 40.2°F4.6°C 33.6°F0.9°C 77% 12.7 mph W20.4 kmh W 20.5 mph33.0 kmh 29.33 in993.2 mb 0.00 in0.0 mm 0.00 in0.0 mm 0.09 in2.3 mm
10:35 AM 40.4°F4.7°C 33.7°F0.9°C 77% 10.0 mph WNW16.1 kmh WNW 20.5 mph33.0 kmh 29.33 in993.2 mb 0.00 in0.0 mm 0.00 in0.0 mm 0.09 in2.3 mm
10:30 AM 40.2°F4.6°C 33.6°F0.9°C 77% 6.7 mph W10.8 kmh W 9.8 mph15.8 kmh 29.33 in993.2 mb 0.00 in0.0 mm 0.00 in0.0 mm 0.09 in2.3 mm
10:25 AM 40.0°F4.4°C 33.4°F0.8°C 77% 7.3 mph W11.7 kmh W 14.0 mph22.5 kmh 29.36 in994.2 mb 0.00 in0.0 mm 0.00 in0.0 mm 0.09 in2.3 mm
10:20 AM 39.8°F4.3°C 33.5°F0.8°C 78% 7.6 mph W12.2 kmh W 14.0 mph22.5 kmh 29.36 in994.2 mb 0.00 in0.0 mm 0.00 in0.0 mm 0.09 in2.3 mm
10:15 AM 39.8°F4.3°C 33.5°F0.8°C 78% 5.3 mph W8.5 kmh W 8.9 mph14.3 kmh 29.36 in994.2 mb 0.00 in0.0 mm 0.00 in0.0 mm 0.09 in2.3 mm
10:10 AM 39.7°F4.3°C 33.4°F0.8°C 78% 5.7 mph W9.2 kmh W 10.4 mph16.7 kmh 29.33 in993.2 mb 0.00 in0.0 mm 0.00 in0.0 mm 0.09 in2.3 mm
10:05 AM 39.5°F4.2°C 32.9°F0.5°C 77% 7.7 mph W12.4 kmh W 10.4 mph16.7 kmh 29.33 in993.2 mb 0.00 in0.0 mm 0.00 in0.0 mm 0.09 in2.3 mm
10:00 AM 39.7°F4.3°C 33.0°F0.6°C 77% 6.6 mph W10.6 kmh W 10.4 mph16.7 kmh 29.33 in993.2 mb 0.00 in0.0 mm 0.00 in0.0 mm 0.09 in2.3 mm
09:55 AM 39.8°F4.3°C 32.9°F0.5°C 76% 10.7 mph W17.2 kmh W 17.0 mph27.4 kmh 29.36 in994.2 mb 0.00 in0.0 mm 0.00 in0.0 mm 0.09 in2.3 mm
09:50 AM 39.8°F4.3°C 33.2°F0.7°C 77% 12.2 mph W19.6 kmh W 17.0 mph27.4 kmh 29.36 in994.2 mb 0.00 in0.0 mm 0.00 in0.0 mm 0.09 in2.3 mm
09:45 AM 40.2°F4.6°C 33.2°F0.7°C 76% 11.3 mph W18.2 kmh W 16.1 mph25.9 kmh 29.36 in994.2 mb 0.00 in0.0 mm 0.00 in0.0 mm 0.09 in2.3 mm
09:40 AM 40.5°F4.7°C 33.9°F1.1°C 77% 11.3 mph WNW18.2 kmh WNW 18.7 mph30.1 kmh 29.36 in994.2 mb 0.00 in0.0 mm 0.00 in0.0 mm 0.09 in2.3 mm
09:35 AM 40.7°F4.8°C 34.1°F1.2°C 77% 11.7 mph WNW18.8 kmh WNW 26.2 mph42.2 kmh 29.36 in994.2 mb 0.00 in0.0 mm 0.00 in0.0 mm 0.09 in2.3 mm
09:30 AM 41.1°F5.1°C 34.4°F1.3°C 77% 12.8 mph W20.6 kmh W 26.2 mph42.2 kmh 29.36 in994.2 mb 0.00 in0.0 mm 0.00 in0.0 mm 0.09 in2.3 mm
09:25 AM 41.1°F5.1°C 34.4°F1.3°C 77% 12.3 mph W19.8 kmh W 19.0 mph30.6 kmh 29.33 in993.2 mb 0.00 in0.0 mm 0.00 in0.0 mm 0.09 in2.3 mm
09:20 AM 41.1°F5.1°C 34.4°F1.3°C 77% 10.1 mph W16.3 kmh W 19.0 mph30.6 kmh 29.33 in993.2 mb 0.05 in1.3 mm 0.00 in0.0 mm 0.09 in2.3 mm
09:15 AM 41.1°F5.1°C 34.4°F1.3°C 77% 7.5 mph W12.1 kmh W 16.4 mph26.4 kmh 29.33 in993.2 mb 0.05 in1.3 mm 0.00 in0.0 mm 0.09 in2.3 mm
09:10 AM 40.7°F4.8°C 34.1°F1.2°C 77% 7.8 mph W12.6 kmh W 13.7 mph22.0 kmh 29.36 in994.2 mb 0.05 in1.3 mm 0.00 in0.0 mm 0.09 in2.3 mm
09:05 AM 40.5°F4.7°C 33.6°F0.9°C 76% 11.2 mph WNW18.0 kmh WNW 18.1 mph29.1 kmh 29.36 in994.2 mb 0.05 in1.3 mm 0.00 in0.0 mm 0.09 in2.3 mm
09:00 AM 40.7°F4.8°C 33.8°F1.0°C 76% 13.3 mph W21.4 kmh W 18.1 mph29.1 kmh 29.36 in994.2 mb 0.05 in1.3 mm 0.00 in0.0 mm 0.09 in2.3 mm
08:55 AM 40.9°F4.9°C 33.9°F1.1°C 76% 15.8 mph W25.4 kmh W 22.6 mph36.4 kmh 29.36 in994.2 mb 0.05 in1.3 mm 0.00 in0.0 mm 0.09 in2.3 mm
08:50 AM 40.9°F4.9°C 33.9°F1.1°C 76% 15.2 mph WNW24.5 kmh WNW 22.6 mph36.4 kmh 29.36 in994.2 mb 0.05 in1.3 mm 0.00 in0.0 mm 0.09 in2.3 mm
08:45 AM 40.7°F4.8°C 34.1°F1.2°C 77% 11.3 mph NW18.2 kmh NW 18.7 mph30.1 kmh 29.36 in994.2 mb 0.05 in1.3 mm 0.00 in0.0 mm 0.09 in2.3 mm
08:40 AM 40.7°F4.8°C 33.8°F1.0°C 76% 10.6 mph WNW17.1 kmh WNW 20.2 mph32.5 kmh 29.36 in994.2 mb 0.05 in1.3 mm 0.00 in0.0 mm 0.09 in2.3 mm
08:35 AM 40.7°F4.8°C 34.1°F1.2°C 77% 13.0 mph WNW20.9 kmh WNW 22.3 mph35.9 kmh 29.36 in994.2 mb 0.05 in1.3 mm 0.00 in0.0 mm 0.09 in2.3 mm
08:30 AM 40.5°F4.7°C 33.9°F1.1°C 77% 14.3 mph WNW23.0 kmh WNW 22.3 mph35.9 kmh 29.36 in994.2 mb 0.05 in1.3 mm 0.00 in0.0 mm 0.09 in2.3 mm
08:25 AM 40.5°F4.7°C 33.9°F1.1°C 77% 12.3 mph WNW19.8 kmh WNW 16.7 mph26.9 kmh 29.36 in994.2 mb 0.05 in1.3 mm 0.60 in15.2 mm 0.09 in2.3 mm
08:20 AM 40.5°F4.7°C 33.9°F1.1°C 77% 10.8 mph W17.4 kmh W 16.7 mph26.9 kmh 29.36 in994.2 mb 0.00 in0.0 mm 0.00 in0.0 mm 0.04 in1.0 mm
08:15 AM 40.4°F4.7°C 34.1°F1.2°C 78% 11.0 mph W17.7 kmh W 16.4 mph26.4 kmh 29.36 in994.2 mb 0.00 in0.0 mm 0.00 in0.0 mm 0.04 in1.0 mm
08:10 AM 40.5°F4.7°C 34.2°F1.2°C 78% 11.4 mph W18.3 kmh W 16.1 mph25.9 kmh 29.36 in994.2 mb 0.00 in0.0 mm 0.00 in0.0 mm 0.04 in1.0 mm
08:05 AM 40.5°F4.7°C 33.9°F1.1°C 77% 11.7 mph W18.8 kmh W 16.1 mph25.9 kmh 29.36 in994.2 mb 0.00 in0.0 mm 0.00 in0.0 mm 0.04 in1.0 mm
08:00 AM 40.4°F4.7°C 33.7°F0.9°C 77% 15.5 mph W24.9 kmh W 22.9 mph36.9 kmh 29.36 in994.2 mb 0.00 in0.0 mm 0.00 in0.0 mm 0.04 in1.0 mm
07:55 AM 40.4°F4.7°C 33.7°F0.9°C 77% 18.9 mph W30.4 kmh W 25.0 mph40.2 kmh 29.36 in994.2 mb 0.00 in0.0 mm 0.00 in0.0 mm 0.04 in1.0 mm
07:50 AM 40.0°F4.4°C 33.4°F0.8°C 77% 13.6 mph W21.9 kmh W 25.0 mph40.2 kmh 29.36 in994.2 mb 0.00 in0.0 mm 0.00 in0.0 mm 0.04 in1.0 mm
07:45 AM 40.0°F4.4°C 33.4°F0.8°C 77% 12.9 mph W20.8 kmh W 17.3 mph27.8 kmh 29.36 in994.2 mb 0.00 in0.0 mm 0.00 in0.0 mm 0.04 in1.0 mm
07:40 AM 40.0°F4.4°C 33.4°F0.8°C 77% 13.8 mph W22.2 kmh W 17.3 mph27.8 kmh 29.36 in994.2 mb 0.00 in0.0 mm 0.00 in0.0 mm 0.04 in1.0 mm
07:35 AM 40.0°F4.4°C 33.4°F0.8°C 77% 13.8 mph WNW22.2 kmh WNW 20.5 mph33.0 kmh 29.36 in994.2 mb 0.00 in0.0 mm 0.00 in0.0 mm 0.04 in1.0 mm
07:30 AM 40.0°F4.4°C 33.4°F0.8°C 77% 13.6 mph NW21.9 kmh NW 20.5 mph33.0 kmh 29.36 in994.2 mb 0.00 in0.0 mm 0.00 in0.0 mm 0.04 in1.0 mm
07:25 AM 40.2°F4.6°C 33.6°F0.9°C 77% 14.0 mph W22.5 kmh W 25.3 mph40.7 kmh 29.36 in994.2 mb 0.00 in0.0 mm 0.00 in0.0 mm 0.04 in1.0 mm
07:20 AM 40.2°F4.6°C 33.6°F0.9°C 77% 11.7 mph W18.8 kmh W 25.3 mph40.7 kmh 29.36 in994.2 mb 0.00 in0.0 mm 0.00 in0.0 mm 0.04 in1.0 mm
07:15 AM 40.0°F4.4°C 33.4°F0.8°C 77% 10.7 mph WNW17.2 kmh WNW 14.3 mph23.0 kmh 29.36 in994.2 mb 0.00 in0.0 mm 0.00 in0.0 mm 0.04 in1.0 mm
07:10 AM 39.8°F4.3°C 33.5°F0.8°C 78% 9.6 mph WNW15.4 kmh WNW 14.3 mph23.0 kmh 29.36 in994.2 mb 0.00 in0.0 mm 0.00 in0.0 mm 0.04 in1.0 mm
07:05 AM 39.5°F4.2°C 33.2°F0.7°C 78% 9.5 mph WNW15.3 kmh WNW 18.7 mph30.1 kmh 29.36 in994.2 mb 0.00 in0.0 mm 0.00 in0.0 mm 0.04 in1.0 mm
07:00 AM 39.1°F3.9°C 32.8°F0.4°C 78% 9.8 mph W15.8 kmh W 18.7 mph30.1 kmh 29.36 in994.2 mb 0.00 in0.0 mm 0.00 in0.0 mm 0.04 in1.0 mm
06:55 AM 39.1°F3.9°C 32.8°F0.4°C 78% 7.8 mph W12.6 kmh W 14.6 mph23.5 kmh 29.36 in994.2 mb 0.00 in0.0 mm 0.00 in0.0 mm 0.04 in1.0 mm
06:50 AM 39.1°F3.9°C 32.8°F0.4°C 78% 8.0 mph WNW12.9 kmh WNW 14.6 mph23.5 kmh 29.36 in994.2 mb 0.00 in0.0 mm 0.00 in0.0 mm 0.04 in1.0 mm
06:45 AM 39.1°F3.9°C 32.8°F0.4°C 78% 9.0 mph NW14.5 kmh NW 16.7 mph26.9 kmh 29.36 in994.2 mb 0.00 in0.0 mm 0.00 in0.0 mm 0.04 in1.0 mm
06:40 AM 39.1°F3.9°C 32.8°F0.4°C 78% 9.3 mph NW15.0 kmh NW 16.7 mph26.9 kmh 29.36 in994.2 mb 0.00 in0.0 mm 0.00 in0.0 mm 0.04 in1.0 mm
06:35 AM 38.9°F3.8°C 32.7°F0.4°C 78% 8.5 mph W13.7 kmh W 13.1 mph21.1 kmh 29.36 in994.2 mb 0.00 in0.0 mm 0.00 in0.0 mm 0.04 in1.0 mm
06:30 AM 38.9°F3.8°C 32.7°F0.4°C 78% 7.8 mph W12.6 kmh W 13.1 mph21.1 kmh 29.36 in994.2 mb 0.00 in0.0 mm 0.00 in0.0 mm 0.04 in1.0 mm
06:25 AM 38.9°F3.8°C 32.7°F0.4°C 78% 6.8 mph W10.9 kmh W 9.8 mph15.8 kmh 29.39 in995.3 mb 0.00 in0.0 mm 0.00 in0.0 mm 0.04 in1.0 mm
06:20 AM 39.1°F3.9°C 32.8°F0.4°C 78% 7.4 mph W11.9 kmh W 10.7 mph17.2 kmh 29.39 in995.3 mb 0.00 in0.0 mm 0.00 in0.0 mm 0.04 in1.0 mm
06:15 AM 39.1°F3.9°C 32.5°F0.3°C 77% 8.9 mph W14.3 kmh W 15.2 mph24.5 kmh 29.39 in995.3 mb 0.00 in0.0 mm 0.00 in0.0 mm 0.04 in1.0 mm
06:10 AM 39.3°F4.1°C 32.7°F0.4°C 77% 11.1 mph WNW17.9 kmh WNW 15.2 mph24.5 kmh 29.39 in995.3 mb 0.00 in0.0 mm 0.00 in0.0 mm 0.04 in1.0 mm
06:05 AM 39.3°F4.1°C 32.7°F0.4°C 77% 13.3 mph NW21.4 kmh NW 22.0 mph35.4 kmh 29.39 in995.3 mb 0.00 in0.0 mm 0.00 in0.0 mm 0.04 in1.0 mm
06:00 AM 39.5°F4.2°C 32.9°F0.5°C 77% 14.7 mph NW23.7 kmh NW 22.0 mph35.4 kmh 29.39 in995.3 mb 0.00 in0.0 mm 0.00 in0.0 mm 0.04 in1.0 mm
05:55 AM 40.4°F4.7°C 33.7°F0.9°C 77% 12.1 mph NW19.5 kmh NW 21.4 mph34.4 kmh 29.36 in994.2 mb 0.00 in0.0 mm 0.00 in0.0 mm 0.04 in1.0 mm
05:50 AM 40.5°F4.7°C 33.9°F1.1°C 77% 11.7 mph WNW18.8 kmh WNW 21.1 mph34.0 kmh 29.36 in994.2 mb 0.00 in0.0 mm 0.00 in0.0 mm 0.04 in1.0 mm
05:45 AM 40.4°F4.7°C 33.7°F0.9°C 77% 11.6 mph WNW18.7 kmh WNW 21.1 mph34.0 kmh 29.36 in994.2 mb 0.00 in0.0 mm 0.00 in0.0 mm 0.04 in1.0 mm
05:40 AM 40.0°F4.4°C 33.4°F0.8°C 77% 8.9 mph WNW14.3 kmh WNW 17.6 mph28.3 kmh 29.36 in994.2 mb 0.00 in0.0 mm 0.00 in0.0 mm 0.04 in1.0 mm
05:35 AM 40.0°F4.4°C 33.1°F0.6°C 76% 9.6 mph W15.4 kmh W 17.6 mph28.3 kmh 29.36 in994.2 mb 0.00 in0.0 mm 0.00 in0.0 mm 0.04 in1.0 mm
05:30 AM 40.0°F4.4°C 33.1°F0.6°C 76% 11.1 mph W17.9 kmh W 14.6 mph23.5 kmh 29.36 in994.2 mb 0.00 in0.0 mm 0.00 in0.0 mm 0.04 in1.0 mm
05:25 AM 40.2°F4.6°C 33.2°F0.7°C 76% 11.6 mph W18.7 kmh W 16.4 mph26.4 kmh 29.39 in995.3 mb 0.00 in0.0 mm 0.00 in0.0 mm 0.04 in1.0 mm
05:20 AM 40.2°F4.6°C 33.2°F0.7°C 76% 10.8 mph W17.4 kmh W 17.0 mph27.4 kmh 29.39 in995.3 mb 0.00 in0.0 mm 0.00 in0.0 mm 0.04 in1.0 mm
05:15 AM 40.2°F4.6°C 33.2°F0.7°C 76% 13.0 mph WNW20.9 kmh WNW 31.2 mph50.2 kmh 29.39 in995.3 mb 0.00 in0.0 mm 0.00 in0.0 mm 0.04 in1.0 mm
05:10 AM 40.4°F4.7°C 33.1°F0.6°C 75% 17.1 mph WNW27.5 kmh WNW 31.2 mph50.2 kmh 29.39 in995.3 mb 0.00 in0.0 mm 0.00 in0.0 mm 0.04 in1.0 mm
05:05 AM 40.9°F4.9°C 33.6°F0.9°C 75% 15.5 mph W24.9 kmh W 23.2 mph37.3 kmh 29.39 in995.3 mb 0.00 in0.0 mm 0.00 in0.0 mm 0.04 in1.0 mm
05:00 AM 41.1°F5.1°C 33.8°F1.0°C 75% 16.6 mph W26.7 kmh W 30.3 mph48.8 kmh 29.39 in995.3 mb 0.00 in0.0 mm 0.00 in0.0 mm 0.04 in1.0 mm
04:55 AM 40.9°F4.9°C 33.6°F0.9°C 75% 17.3 mph W27.8 kmh W 30.3 mph48.8 kmh 29.39 in995.3 mb 0.00 in0.0 mm 0.00 in0.0 mm 0.04 in1.0 mm
04:50 AM 40.5°F4.7°C 33.2°F0.7°C 75% 14.1 mph WNW22.7 kmh WNW 20.2 mph32.5 kmh 29.39 in995.3 mb 0.00 in0.0 mm 0.00 in0.0 mm 0.04 in1.0 mm
04:45 AM 40.5°F4.7°C 33.6°F0.9°C 76% 13.9 mph WNW22.4 kmh WNW 17.9 mph28.8 kmh 29.39 in995.3 mb 0.00 in0.0 mm 0.00 in0.0 mm 0.04 in1.0 mm
04:40 AM 40.2°F4.6°C 33.2°F0.7°C 76% 14.2 mph NW22.9 kmh NW 17.6 mph28.3 kmh 29.39 in995.3 mb 0.00 in0.0 mm 0.00 in0.0 mm 0.04 in1.0 mm
04:35 AM 40.2°F4.6°C 33.2°F0.7°C 76% 13.0 mph NW20.9 kmh NW 17.6 mph28.3 kmh 29.39 in995.3 mb 0.00 in0.0 mm 0.00 in0.0 mm 0.04 in1.0 mm
04:30 AM 40.0°F4.4°C 33.1°F0.6°C 76% 12.1 mph WNW19.5 kmh WNW 18.1 mph29.1 kmh 29.39 in995.3 mb 0.00 in0.0 mm 0.00 in0.0 mm 0.04 in1.0 mm
04:25 AM 40.0°F4.4°C 33.1°F0.6°C 76% 11.5 mph WNW18.5 kmh WNW 19.0 mph30.6 kmh 29.39 in995.3 mb 0.00 in0.0 mm 0.00 in0.0 mm 0.04 in1.0 mm
04:20 AM 40.0°F4.4°C 33.1°F0.6°C 76% 11.6 mph W18.7 kmh W 19.0 mph30.6 kmh 29.39 in995.3 mb 0.00 in0.0 mm 0.00 in0.0 mm 0.04 in1.0 mm
04:15 AM 39.8°F4.3°C 32.9°F0.5°C 76% 14.5 mph W23.3 kmh W 19.0 mph30.6 kmh 29.39 in995.3 mb 0.00 in0.0 mm 0.00 in0.0 mm 0.04 in1.0 mm
04:10 AM 39.8°F4.3°C 32.9°F0.5°C 76% 13.2 mph W21.2 kmh W 20.2 mph32.5 kmh 29.41 in995.9 mb 0.00 in0.0 mm 0.00 in0.0 mm 0.04 in1.0 mm
04:05 AM 40.0°F4.4°C 33.1°F0.6°C 76% 15.3 mph W24.6 kmh W 24.7 mph39.8 kmh 29.41 in995.9 mb 0.04 in1.0 mm 0.00 in0.0 mm 0.04 in1.0 mm
04:00 AM 40.5°F4.7°C 33.2°F0.7°C 75% 17.9 mph W28.8 kmh W 31.8 mph51.2 kmh 29.41 in995.9 mb 0.04 in1.0 mm 0.00 in0.0 mm 0.04 in1.0 mm
03:55 AM 40.9°F4.9°C 33.6°F0.9°C 75% 18.2 mph WNW29.3 kmh WNW 31.8 mph51.2 kmh 29.39 in995.3 mb 0.04 in1.0 mm 0.00 in0.0 mm 0.04 in1.0 mm
03:50 AM 40.7°F4.8°C 33.4°F0.8°C 75% 19.9 mph WNW32.0 kmh WNW 31.8 mph51.2 kmh 29.39 in995.3 mb 0.04 in1.0 mm 0.00 in0.0 mm 0.04 in1.0 mm
03:45 AM 40.4°F4.7°C 33.4°F0.8°C 76% 17.5 mph WNW28.2 kmh WNW 22.9 mph36.9 kmh 29.39 in995.3 mb 0.04 in1.0 mm 0.00 in0.0 mm 0.04 in1.0 mm
03:40 AM 40.2°F4.6°C 33.2°F0.7°C 76% 14.5 mph WNW23.3 kmh WNW 20.5 mph33.0 kmh 29.41 in995.9 mb 0.04 in1.0 mm 0.00 in0.0 mm 0.04 in1.0 mm
03:35 AM 40.2°F4.6°C 33.6°F0.9°C 77% 14.3 mph W23.0 kmh W 20.5 mph33.0 kmh 29.41 in995.9 mb 0.04 in1.0 mm 0.00 in0.0 mm 0.04 in1.0 mm
03:30 AM 40.4°F4.7°C 33.4°F0.8°C 76% 16.0 mph W25.7 kmh W 22.6 mph36.4 kmh 29.41 in995.9 mb 0.04 in1.0 mm 0.00 in0.0 mm 0.04 in1.0 mm
03:25 AM 40.4°F4.7°C 33.4°F0.8°C 76% 19.1 mph WNW30.7 kmh WNW 22.9 mph36.9 kmh 29.41 in995.9 mb 0.04 in1.0 mm 0.00 in0.0 mm 0.04 in1.0 mm
03:20 AM 40.5°F4.7°C 33.6°F0.9°C 76% 16.0 mph NW25.7 kmh NW 22.9 mph36.9 kmh 29.41 in995.9 mb 0.04 in1.0 mm 0.00 in0.0 mm 0.04 in1.0 mm
03:15 AM 40.4°F4.7°C 33.4°F0.8°C 76% 11.6 mph NW18.7 kmh NW 22.6 mph36.4 kmh 29.41 in995.9 mb 0.04 in1.0 mm 0.00 in0.0 mm 0.04 in1.0 mm
03:10 AM 40.4°F4.7°C 33.4°F0.8°C 76% 10.4 mph WNW16.7 kmh WNW 19.0 mph30.6 kmh 29.41 in995.9 mb 0.04 in1.0 mm 0.48 in12.2 mm 0.04 in1.0 mm
03:05 AM 40.4°F4.7°C 33.4°F0.8°C 76% 12.2 mph WNW19.6 kmh WNW 19.0 mph30.6 kmh 29.41 in995.9 mb 0.00 in0.0 mm 0.00 in0.0 mm 0.00 in0.0 mm
03:00 AM 40.5°F4.7°C 33.2°F0.7°C 75% 14.5 mph W23.3 kmh W 19.6 mph31.5 kmh 29.41 in995.9 mb 0.00 in0.0 mm 0.00 in0.0 mm 0.00 in0.0 mm
02:55 AM 40.9°F4.9°C 33.9°F1.1°C 76% 16.0 mph W25.7 kmh W 22.0 mph35.4 kmh 29.41 in995.9 mb 0.00 in0.0 mm 0.00 in0.0 mm 0.00 in0.0 mm
02:50 AM 40.5°F4.7°C 33.6°F0.9°C 76% 14.2 mph W22.9 kmh W 22.0 mph35.4 kmh 29.41 in995.9 mb 0.00 in0.0 mm 0.00 in0.0 mm 0.00 in0.0 mm
02:45 AM 40.5°F4.7°C 33.6°F0.9°C 76% 13.2 mph W21.2 kmh W 19.6 mph31.5 kmh 29.41 in995.9 mb 0.00 in0.0 mm 0.00 in0.0 mm 0.00 in0.0 mm
02:40 AM 40.4°F4.7°C 33.1°F0.6°C 75% 14.7 mph W23.7 kmh W 21.7 mph34.9 kmh 29.41 in995.9 mb 0.00 in0.0 mm 0.00 in0.0 mm 0.00 in0.0 mm
02:35 AM 40.4°F4.7°C 33.1°F0.6°C 75% 14.0 mph WNW22.5 kmh WNW 21.7 mph34.9 kmh 29.41 in995.9 mb 0.00 in0.0 mm 0.00 in0.0 mm 0.00 in0.0 mm
02:30 AM 40.4°F4.7°C 32.7°F0.4°C 74% 13.6 mph WNW21.9 kmh WNW 22.3 mph35.9 kmh 29.41 in995.9 mb 0.00 in0.0 mm 0.00 in0.0 mm 0.00 in0.0 mm
02:25 AM 40.7°F4.8°C 33.1°F0.6°C 74% 15.6 mph WNW25.1 kmh WNW 26.2 mph42.2 kmh 29.41 in995.9 mb 0.00 in0.0 mm 0.00 in0.0 mm 0.00 in0.0 mm
02:20 AM 41.3°F5.2°C 33.3°F0.7°C 73% 20.0 mph W32.2 kmh W 31.2 mph50.2 kmh 29.41 in995.9 mb 0.00 in0.0 mm 0.00 in0.0 mm 0.00 in0.0 mm
02:15 AM 42.2°F5.7°C 33.8°F1.0°C 72% 22.2 mph W35.7 kmh W 38.1 mph61.3 kmh 29.41 in995.9 mb 0.00 in0.0 mm 0.00 in0.0 mm 0.00 in0.0 mm
02:10 AM 42.2°F5.7°C 33.8°F1.0°C 72% 20.8 mph NW33.5 kmh NW 38.1 mph61.3 kmh 29.41 in995.9 mb 0.00 in0.0 mm 0.00 in0.0 mm 0.00 in0.0 mm
02:05 AM 42.5°F5.8°C 34.5°F1.4°C 73% 17.3 mph WNW27.8 kmh WNW 23.2 mph37.3 kmh 29.41 in995.9 mb 0.00 in0.0 mm 0.00 in0.0 mm 0.00 in0.0 mm
02:00 AM 42.7°F5.9°C 34.7°F1.5°C 73% 19.4 mph W31.2 kmh W 36.0 mph57.9 kmh 29.41 in995.9 mb 0.00 in0.0 mm 0.00 in0.0 mm 0.00 in0.0 mm
01:55 AM 42.9°F6.1°C 35.2°F1.8°C 74% 19.0 mph W30.6 kmh W 36.0 mph57.9 kmh 29.41 in995.9 mb 0.00 in0.0 mm 0.00 in0.0 mm 0.00 in0.0 mm
01:50 AM 42.9°F6.1°C 35.2°F1.8°C 74% 20.1 mph WNW32.3 kmh WNW 36.0 mph57.9 kmh 29.41 in995.9 mb 0.00 in0.0 mm 0.00 in0.0 mm 0.00 in0.0 mm
01:45 AM 42.9°F6.1°C 35.2°F1.8°C 74% 18.0 mph WNW29.0 kmh WNW 24.1 mph38.8 kmh 29.41 in995.9 mb 0.00 in0.0 mm 0.00 in0.0 mm 0.00 in0.0 mm
01:40 AM 42.9°F6.1°C 35.2°F1.8°C 74% 18.2 mph NW29.3 kmh NW 27.4 mph44.1 kmh 29.41 in995.9 mb 0.00 in0.0 mm 0.00 in0.0 mm 0.00 in0.0 mm
01:35 AM 43.1°F6.2°C 35.0°F1.7°C 73% 18.8 mph WNW30.3 kmh WNW 27.4 mph44.1 kmh 29.41 in995.9 mb 0.00 in0.0 mm 0.00 in0.0 mm 0.00 in0.0 mm
01:30 AM 42.9°F6.1°C 35.2°F1.8°C 74% 16.0 mph W25.7 kmh W 22.6 mph36.4 kmh 29.41 in995.9 mb 0.00 in0.0 mm 0.00 in0.0 mm 0.00 in0.0 mm
01:25 AM 42.7°F5.9°C 35.0°F1.7°C 74% 15.6 mph WNW25.1 kmh WNW 22.6 mph36.4 kmh 29.41 in995.9 mb 0.00 in0.0 mm 0.00 in0.0 mm 0.00 in0.0 mm
01:20 AM 42.7°F5.9°C 35.3°F1.8°C 75% 15.4 mph W24.8 kmh W 26.5 mph42.6 kmh 29.41 in995.9 mb 0.00 in0.0 mm 0.00 in0.0 mm 0.00 in0.0 mm
01:15 AM 42.5°F5.8°C 35.2°F1.8°C 75% 16.4 mph WNW26.4 kmh WNW 26.5 mph42.6 kmh 29.41 in995.9 mb 0.00 in0.0 mm 0.00 in0.0 mm 0.00 in0.0 mm
01:10 AM 42.2°F5.7°C 34.5°F1.4°C 74% 18.1 mph WNW29.1 kmh WNW 23.8 mph38.3 kmh 29.41 in995.9 mb 0.00 in0.0 mm 0.00 in0.0 mm 0.00 in0.0 mm
01:05 AM 42.2°F5.7°C 34.5°F1.4°C 74% 18.6 mph W29.9 kmh W 25.3 mph40.7 kmh 29.41 in995.9 mb 0.00 in0.0 mm 0.00 in0.0 mm 0.00 in0.0 mm
01:00 AM 41.8°F5.4°C 34.5°F1.4°C 75% 15.4 mph W24.8 kmh W 25.3 mph40.7 kmh 29.41 in995.9 mb 0.00 in0.0 mm 0.00 in0.0 mm 0.00 in0.0 mm
12:55 AM 41.6°F5.3°C 34.3°F1.3°C 75% 12.9 mph W20.8 kmh W 26.2 mph42.2 kmh 29.41 in995.9 mb 0.00 in0.0 mm 0.00 in0.0 mm 0.00 in0.0 mm
12:50 AM 41.6°F5.3°C 34.3°F1.3°C 75% 13.2 mph WNW21.2 kmh WNW 26.2 mph42.2 kmh 29.41 in995.9 mb 0.00 in0.0 mm 0.00 in0.0 mm 0.00 in0.0 mm
12:45 AM 41.6°F5.3°C 34.3°F1.3°C 75% 15.7 mph NW25.3 kmh NW 23.5 mph37.8 kmh 29.41 in995.9 mb 0.00 in0.0 mm 0.00 in0.0 mm 0.00 in0.0 mm
12:40 AM 41.6°F5.3°C 34.0°F1.1°C 74% 18.1 mph WNW29.1 kmh WNW 31.2 mph50.2 kmh 29.41 in995.9 mb 0.00 in0.0 mm 0.00 in0.0 mm 0.00 in0.0 mm
12:35 AM 41.6°F5.3°C 34.0°F1.1°C 74% 19.2 mph WNW30.9 kmh WNW 31.2 mph50.2 kmh 29.41 in995.9 mb 0.00 in0.0 mm 0.00 in0.0 mm 0.00 in0.0 mm
12:30 AM 41.6°F5.3°C 34.0°F1.1°C 74% 19.7 mph WNW31.7 kmh WNW 30.9 mph49.7 kmh 29.41 in995.9 mb 0.00 in0.0 mm 0.00 in0.0 mm 0.00 in0.0 mm
12:25 AM 41.6°F5.3°C 34.3°F1.3°C 75% 18.9 mph WNW30.4 kmh WNW 30.9 mph49.7 kmh 29.41 in995.9 mb 0.00 in0.0 mm 0.00 in0.0 mm 0.00 in0.0 mm
12:20 AM 41.6°F5.3°C 34.3°F1.3°C 75% 16.7 mph W26.9 kmh W 21.7 mph34.9 kmh 29.41 in995.9 mb 0.00 in0.0 mm 0.00 in0.0 mm 0.00 in0.0 mm
12:15 AM 41.6°F5.3°C 34.3°F1.3°C 75% 16.1 mph WNW25.9 kmh WNW 21.7 mph34.9 kmh 29.41 in995.9 mb 0.00 in0.0 mm 0.00 in0.0 mm 0.00 in0.0 mm
12:10 AM 41.3°F5.2°C 33.9°F1.1°C 75% 16.0 mph WNW25.7 kmh WNW 26.2 mph42.2 kmh 29.41 in995.9 mb 0.00 in0.0 mm 0.00 in0.0 mm 0.00 in0.0 mm
12:05 AM 41.3°F5.2°C 33.9°F1.1°C 75% 18.8 mph W30.3 kmh W 26.2 mph42.2 kmh 29.41 in995.9 mb 0.00 in0.0 mm 0.00 in0.0 mm 0.00 in0.0 mm
12:00 AM 41.1°F5.1°C 33.8°F1.0°C 75% 17.2 mph WNW27.7 kmh WNW 26.2 mph42.2 kmh 29.41 in995.9 mb 0.00 in0.0 mm 0.00 in0.0 mm 0.00 in0.0 mm